Time;durP1;ratioP1;P1;durP2;ratioP2;P2;SDS_P1;SDS_P2;PMS_P1;PMS_P2;Temp;Humidity;BMP_temperature;BMP_pressure;BME280_temperature;BME280_humidity;BME280_pressure;Samples;Min_cycle;Max_cycle;Signal;HPM_P1;HPM_P2
2023/01/10 00:00:39;;;;;;;5.05;3.45;;;;;;;14.81;48.80;92531.69;4944771;28;20036;-89
2023/01/10 00:03:07;;;;;;;3.90;2.97;;;;;;;14.73;48.98;92539.66;4928072;28;20080;-88
2023/01/10 00:05:33;;;;;;;4.78;3.33;;;;;;;14.80;48.65;92549.28;4961175;28;20474;-90
2023/01/10 00:07:58;;;;;;;4.18;3.08;;;;;;;14.72;48.91;92549.09;4945283;28;20048;-90
2023/01/10 00:10:24;;;;;;;5.07;3.67;;;;;;;14.73;48.83;92543.13;4928436;28;20575;-89
2023/01/10 00:15:34;;;;;;;5.50;3.40;;;;;;;14.69;49.12;92550.84;4954154;28;20059;-89
2023/01/10 00:18:00;;;;;;;4.20;3.38;;;;;;;14.68;49.54;92564.97;4945172;28;20048;-89
2023/01/10 00:20:25;;;;;;;5.88;3.42;;;;;;;14.69;49.11;92561.00;4930364;28;20047;-89
2023/01/10 00:22:51;;;;;;;5.43;3.25;;;;;;;14.65;49.21;92566.72;4945222;28;20082;-88
2023/01/10 00:25:20;;;;;;;5.47;3.70;;;;;;;14.70;49.20;92567.91;4927959;29;20036;-89
2023/01/10 00:27:52;;;;;;;4.50;2.95;;;;;;;14.70;49.22;92568.66;4944236;28;20040;-89
2023/01/10 00:30:18;;;;;;;3.60;2.75;;;;;;;14.75;49.20;92567.84;4942611;28;20040;-89
2023/01/10 00:32:43;;;;;;;5.60;3.30;;;;;;;14.78;48.88;92573.53;4960171;28;20055;-88
2023/01/10 00:35:10;;;;;;;4.43;3.13;;;;;;;14.78;48.89;92570.81;4959801;28;20052;-89
2023/01/10 00:37:35;;;;;;;3.78;2.70;;;;;;;14.79;48.96;92569.56;4933880;28;20039;-90
2023/01/10 00:40:01;;;;;;;4.20;3.08;;;;;;;14.68;49.19;92575.84;4962503;28;20511;-88
2023/01/10 00:45:10;;;;;;;4.38;2.83;;;;;;;14.72;49.14;92581.75;4967892;28;20050;-89
2023/01/10 00:47:36;;;;;;;3.35;2.80;;;;;;;14.69;49.01;92583.50;4968712;28;20043;-89
2023/01/10 00:50:04;;;;;;;4.18;2.72;;;;;;;14.71;48.96;92586.44;4962283;28;20051;-89
2023/01/10 00:52:30;;;;;;;4.50;2.88;;;;;;;14.72;48.85;92587.91;4931287;28;20115;-88
2023/01/10 00:54:55;;;;;;;3.38;2.47;;;;;;;14.69;49.05;92593.63;4953663;28;20056;-88
2023/01/10 00:57:21;;;;;;;3.63;2.70;;;;;;;14.75;48.91;92589.63;4943327;28;20050;-89
2023/01/10 00:59:47;;;;;;;4.82;3.47;;;;;;;14.74;49.06;92596.28;4950040;28;20039;-89
2023/01/10 01:02:13;;;;;;;3.88;2.40;;;;;;;14.73;49.12;92600.25;4965295;28;20058;-89
2023/01/10 01:04:38;;;;;;;4.15;2.35;;;;;;;14.71;49.05;92607.47;4931027;29;20065;-88
2023/01/10 01:07:04;;;;;;;3.85;2.35;;;;;;;14.78;49.00;92603.44;4947016;28;20035;-89
2023/01/10 01:09:30;;;;;;;3.53;2.58;;;;;;;14.70;49.05;92611.44;4946407;28;20082;-89
2023/01/10 01:11:55;;;;;;;3.00;2.13;;;;;;;14.73;49.49;92630.19;4946161;28;20036;-90
2023/01/10 01:14:22;;;;;;;2.83;2.47;;;;;;;14.71;49.05;92621.81;4964775;28;20110;-88
2023/01/10 01:16:48;;;;;;;4.32;2.83;;;;;;;14.78;48.93;92633.38;4965804;28;20054;-90
2023/01/10 01:19:13;;;;;;;3.42;2.22;;;;;;;14.81;48.70;92638.53;4959363;28;20039;-89
2023/01/10 01:21:38;;;;;;;4.07;2.83;;;;;;;14.76;48.89;92639.31;4945995;28;20668;-88
2023/01/10 01:24:04;;;;;;;2.75;2.08;;;;;;;14.71;49.10;92640.84;4927034;29;20075;-90
2023/01/10 01:26:30;;;;;;;3.03;2.45;;;;;;;14.69;49.19;92631.72;4959562;28;20047;-89
2023/01/10 01:28:55;;;;;;;3.22;2.15;;;;;;;14.72;49.31;92636.88;4962749;28;20123;-89
2023/01/10 01:31:21;;;;;;;2.53;2.13;;;;;;;14.71;49.03;92651.75;4962064;28;20050;-90
2023/01/10 01:33:46;;;;;;;2.88;2.20;;;;;;;14.84;48.81;92653.88;4959481;28;20430;-89
2023/01/10 01:36:12;;;;;;;3.33;2.22;;;;;;;14.69;49.33;92664.38;4965497;28;20031;-89
2023/01/10 01:38:38;;;;;;;3.13;2.22;;;;;;;14.80;48.78;92671.69;4949687;28;20043;-89
2023/01/10 01:41:55;;;;;;;3.80;2.30;;;;;;;14.71;49.18;92668.06;4964398;28;20047;-89
2023/01/10 01:44:03;;;;;;;2.88;2.00;;;;;;;14.78;49.10;92655.88;4976468;28;20051;-88
2023/01/10 01:46:29;;;;;;;3.75;2.17;;;;;;;14.70;49.06;92666.59;4947122;28;20047;-90
2023/01/10 01:48:54;;;;;;;3.38;2.33;;;;;;;14.72;49.31;92680.41;4954108;28;20043;-89
2023/01/10 01:51:24;;;;;;;3.72;2.50;;;;;;;14.74;49.03;92677.91;4961336;28;20051;-89
2023/01/10 01:53:53;;;;;;;3.25;2.20;;;;;;;14.78;49.00;92674.94;4938481;28;20520;-88
2023/01/10 01:56:22;;;;;;;3.05;2.22;;;;;;;14.73;49.29;92681.88;4962654;28;20043;-89
2023/01/10 01:58:57;;;;;;;3.00;1.90;;;;;;;14.80;48.65;92675.16;4964643;28;20058;-89
2023/01/10 02:01:23;;;;;;;2.75;2.30;;;;;;;14.70;48.97;92688.34;4964089;28;20121;-89
2023/01/10 02:03:53;;;;;;;3.38;2.40;;;;;;;14.72;49.18;92694.00;4949177;28;20798;-88
2023/01/10 02:06:20;;;;;;;2.67;2.00;;;;;;;14.83;48.99;92689.75;4948548;28;20046;-89
2023/01/10 02:08:54;;;;;;;2.67;1.70;;;;;;;14.78;49.19;92706.84;4964995;28;20043;-89
2023/01/10 02:11:22;;;;;;;2.80;1.92;;;;;;;14.77;49.07;92695.22;4963307;28;20074;-89
2023/01/10 02:13:47;;;;;;;2.83;2.00;;;;;;;14.73;49.01;92706.34;4965303;28;20097;-89
2023/01/10 02:16:12;;;;;;;3.63;2.30;;;;;;;14.77;48.97;92716.25;4947626;28;20506;-89
2023/01/10 02:18:38;;;;;;;2.70;2.05;;;;;;;14.70;48.93;92715.56;4965482;28;20117;-89
2023/01/10 02:21:22;;;;;;;2.83;2.10;;;;;;;14.71;49.21;92725.19;4963885;28;20067;-89
2023/01/10 02:23:50;;;;;;;2.35;1.73;;;;;;;14.72;49.25;92723.22;4950260;28;20047;-89
2023/01/10 02:26:18;;;;;;;2.40;1.83;;;;;;;14.78;48.93;92715.00;4949403;28;20076;-88
2023/01/10 02:29:07;;;;;;;3.25;2.03;;;;;;;14.72;49.09;92721.19;4949831;28;20051;-88
2023/01/10 02:31:57;;;;;;;4.40;2.08;;;;;;;14.70;49.14;92720.25;4980063;28;20059;-90
2023/01/10 02:34:31;;;;;;;2.70;1.70;;;;;;;14.79;48.96;92713.75;4980808;28;20047;-89
2023/01/10 02:37:05;;;;;;;2.42;1.77;;;;;;;14.75;49.23;92716.75;4950529;28;20048;-88
2023/01/10 02:39:35;;;;;;;2.15;1.85;;;;;;;14.74;49.11;92715.25;4949965;28;20043;-89
2023/01/10 02:42:08;;;;;;;1.95;1.50;;;;;;;14.76;48.93;92720.94;4980790;28;20773;-88
2023/01/10 02:44:43;;;;;;;2.70;1.77;;;;;;;14.77;49.13;92716.97;4980404;28;20135;-89
2023/01/10 02:47:09;;;;;;;2.83;1.95;;;;;;;14.83;49.10;92722.41;4963469;28;20039;-89
2023/01/10 02:49:47;;;;;;;3.22;1.98;;;;;;;14.77;49.31;92729.84;4964912;28;20039;-90
2023/01/10 02:52:16;;;;;;;1.95;1.60;;;;;;;14.82;49.06;92723.63;4963414;28;20146;-90
2023/01/10 02:54:41;;;;;;;2.53;1.50;;;;;;;14.82;48.52;92731.78;4966998;28;20062;-90
2023/01/10 02:57:29;;;;;;;1.83;1.55;;;;;;;14.74;49.01;92735.03;4967775;28;20098;-89
2023/01/10 03:00:16;;;;;;;2.92;1.67;;;;;;;14.73;49.13;92732.81;4983679;28;20074;-90
2023/01/10 03:02:57;;;;;;;2.67;2.08;;;;;;;14.73;49.02;92743.69;4983898;28;20039;-89
2023/01/10 03:05:22;;;;;;;2.40;1.80;;;;;;;14.77;48.78;92749.63;4969971;28;20073;-90
2023/01/10 03:07:56;;;;;;;1.75;1.30;;;;;;;14.75;49.28;92761.00;4987147;28;20493;-89
2023/01/10 03:10:28;;;;;;;2.20;1.52;;;;;;;14.80;48.74;92764.94;4970242;28;20069;-88
2023/01/10 03:13:05;;;;;;;2.10;1.63;;;;;;;14.81;49.10;92769.16;4987129;28;20065;-89
2023/01/10 03:15:33;;;;;;;2.58;1.90;;;;;;;14.79;49.50;92779.78;4986331;28;20067;-90
2023/01/10 03:18:00;;;;;;;2.85;1.70;;;;;;;14.75;49.55;92780.06;5004015;28;20125;-88
2023/01/10 03:20:25;;;;;;;1.48;1.35;;;;;;;14.76;49.34;92778.06;5015868;28;20055;-89
2023/01/10 03:22:52;;;;;;;2.03;1.73;;;;;;;14.77;49.08;92786.97;4954042;28;20065;-89
2023/01/10 03:25:18;;;;;;;1.77;1.50;;;;;;;14.78;49.36;92780.28;4938581;28;20043;-89
2023/01/10 03:27:59;;;;;;;1.30;1.20;;;;;;;14.75;49.21;92790.94;5003477;28;20047;-90
2023/01/10 03:30:36;;;;;;;2.33;1.67;;;;;;;14.73;49.22;92793.41;4968227;28;20035;-90
2023/01/10 03:33:02;;;;;;;1.58;1.23;;;;;;;14.72;49.42;92797.38;4985983;28;20031;-88
2023/01/10 03:35:56;;;;;;;1.73;1.27;;;;;;;14.78;48.87;92796.63;4954053;28;20109;-89
2023/01/10 03:38:56;;;;;;;3.00;1.60;;;;;;;14.78;49.37;92802.78;4952221;28;20043;-88
2023/01/10 03:41:24;;;;;;;3.92;1.80;;;;;;;14.80;49.21;92799.56;4986575;28;20130;-89
2023/01/10 03:46:46;;;;;;;1.70;1.42;;;;;;;14.79;49.06;92817.88;4984364;28;20128;-89
2023/01/10 03:49:12;;;;;;;1.38;1.20;;;;;;;14.77;49.42;92812.19;4971415;28;20130;-89
2023/01/10 03:51:37;;;;;;;3.55;1.70;;;;;;;14.69;49.55;92822.88;4961921;28;20569;-89
2023/01/10 03:54:03;;;;;;;2.15;1.42;;;;;;;14.70;49.34;92826.34;4969805;28;20050;-89
2023/01/10 03:56:28;;;;;;;1.95;1.25;;;;;;;14.70;49.33;92829.81;5002498;28;20520;-89
2023/01/10 03:58:54;;;;;;;1.98;1.25;;;;;;;14.71;49.35;92830.53;4993110;28;20034;-89
2023/01/10 04:01:19;;;;;;;2.08;1.42;;;;;;;14.71;49.58;92836.72;4975399;28;20087;-89
2023/01/10 04:03:44;;;;;;;1.52;1.17;;;;;;;14.78;49.03;92840.16;4969950;28;20042;-90
2023/01/10 04:06:11;;;;;;;1.40;1.13;;;;;;;14.77;49.15;92844.09;4969262;28;20042;-89
2023/01/10 04:08:36;;;;;;;1.42;1.20;;;;;;;14.79;49.25;92855.97;4938668;28;20045;-89
2023/01/10 04:11:03;;;;;;;1.60;1.30;;;;;;;14.72;49.27;92851.78;4969998;28;20410;-89
2023/01/10 04:13:28;;;;;;;2.25;1.52;;;;;;;14.80;49.22;92864.88;4952924;28;20138;-88
2023/01/10 04:15:53;;;;;;;1.20;1.10;;;;;;;14.78;49.36;92870.06;4954843;28;20031;-89
2023/01/10 04:18:19;;;;;;;1.42;1.20;;;;;;;14.83;48.92;92863.88;4970102;28;20550;-89
2023/01/10 04:20:44;;;;;;;1.58;1.20;;;;;;;14.73;49.17;92875.03;4953941;28;20046;-88
2023/01/10 04:23:10;;;;;;;1.30;1.00;;;;;;;14.71;49.19;92872.09;4962899;28;20043;-90
2023/01/10 04:25:35;;;;;;;2.17;1.17;;;;;;;14.78;49.31;92886.41;4969592;28;20047;-88
2023/01/10 04:28:01;;;;;;;1.85;1.38;;;;;;;14.80;49.25;92889.38;4970178;28;20054;-89
2023/01/10 04:30:26;;;;;;;1.55;1.25;;;;;;;14.72;49.34;92889.88;4953497;28;20042;-89
2023/01/10 04:32:52;;;;;;;1.73;1.15;;;;;;;14.71;49.51;92891.13;4954406;28;20043;-89
2023/01/10 04:35:17;;;;;;;1.65;1.15;;;;;;;14.76;49.60;92905.94;4952386;28;20039;-89
2023/01/10 04:37:43;;;;;;;1.30;1.10;;;;;;;14.75;49.56;92896.31;4970005;28;20050;-90
2023/01/10 04:40:09;;;;;;;1.42;1.10;;;;;;;14.79;49.29;92902.22;4954153;28;20038;-88
2023/01/10 04:42:35;;;;;;;1.42;1.20;;;;;;;14.86;49.04;92903.69;5001913;28;20105;-88
2023/01/10 04:45:00;;;;;;;1.15;1.00;;;;;;;14.75;49.25;92907.19;4969633;28;20335;-89
2023/01/10 04:47:25;;;;;;;2.00;1.30;;;;;;;14.74;48.88;92911.88;4968908;28;20035;-88
2023/01/10 04:49:51;;;;;;;1.25;1.05;;;;;;;14.77;49.37;92915.59;4953436;28;20058;-88
2023/01/10 04:52:16;;;;;;;1.38;1.10;;;;;;;14.78;49.23;92921.78;4953123;28;20050;-89
2023/01/10 04:54:42;;;;;;;1.50;1.10;;;;;;;14.72;49.30;92925.25;4953029;28;20124;-89
2023/01/10 04:57:07;;;;;;;2.15;1.48;;;;;;;14.76;49.35;92935.88;4953118;28;20038;-89
2023/01/10 04:59:32;;;;;;;1.63;1.25;;;;;;;14.82;49.23;92935.88;4968832;28;20038;-88
2023/01/10 05:01:58;;;;;;;1.88;1.17;;;;;;;14.77;49.51;92937.34;4969884;28;20081;-88
2023/01/10 05:04:23;;;;;;;1.77;1.10;;;;;;;14.70;49.43;92948.75;4936225;28;20042;-89
2023/01/10 05:06:49;;;;;;;1.65;1.00;;;;;;;14.80;48.99;92951.94;4968993;28;20047;-88
2023/01/10 05:09:14;;;;;;;1.65;1.15;;;;;;;14.73;49.22;92962.09;4936833;28;20482;-88
2023/01/10 05:11:40;;;;;;;1.33;0.80;;;;;;;14.78;48.93;92963.31;4952883;28;20039;-90
2023/01/10 05:14:05;;;;;;;1.70;0.95;;;;;;;14.72;49.47;92962.63;4968402;28;20038;-89
2023/01/10 05:16:31;;;;;;;1.73;1.15;;;;;;;14.72;49.09;92968.78;4985416;28;20077;-90
2023/01/10 05:18:56;;;;;;;1.23;0.93;;;;;;;14.73;49.32;92980.41;4969280;28;20035;-89
2023/01/10 05:21:21;;;;;;;2.90;1.15;;;;;;;14.75;49.33;92972.47;4951951;28;20101;-90
2023/01/10 05:23:47;;;;;;;1.98;1.10;;;;;;;14.75;49.25;92980.63;4961040;28;20047;-89
2023/01/10 05:26:14;;;;;;;1.38;1.20;;;;;;;14.78;49.10;92982.38;4968249;28;20501;-88
2023/01/10 05:28:39;;;;;;;22.73;16.40;;;;;;;14.78;49.25;92993.25;5001350;28;20093;-89
2023/01/10 05:31:06;;;;;;;20.58;15.15;;;;;;;14.79;49.34;92999.44;4968718;28;20035;-87
2023/01/10 05:33:31;;;;;;;29.77;12.82;;;;;;;14.83;49.54;93003.41;4965409;28;20077;-87
2023/01/10 05:35:58;;;;;;;20.42;10.18;;;;;;;14.92;49.44;93010.56;4958559;28;20034;-87
2023/01/10 05:38:24;;;;;;;17.45;9.75;;;;;;;15.00;48.96;93011.53;4954975;28;20054;-90
2023/01/10 05:40:54;;;;;;;20.90;12.27;;;;;;;14.98;49.13;93022.16;4973413;28;20046;-92
2023/01/10 05:43:20;;;;;;;16.42;10.10;;;;;;;14.95;48.95;93023.91;4969940;28;20089;-87
2023/01/10 05:45:47;;;;;;;18.73;12.00;;;;;;;15.01;49.24;93019.19;4947570;28;20130;-89
2023/01/10 05:48:12;;;;;;;21.58;9.45;;;;;;;15.03;48.82;93033.06;4952709;28;20042;-87
2023/01/10 05:50:38;;;;;;;19.98;10.77;;;;;;;15.09;48.81;93036.50;4983342;28;20054;-91
2023/01/10 05:53:04;;;;;;;23.80;8.88;;;;;;;15.04;48.44;93034.53;4973980;28;20378;-89
2023/01/10 05:55:30;;;;;;;14.43;9.73;;;;;;;14.99;48.93;93038.00;4983020;28;20054;-91
2023/01/10 05:57:55;;;;;;;33.88;10.90;;;;;;;14.92;47.09;93045.94;4967079;28;20039;-89
2023/01/10 06:00:22;;;;;;;37.10;12.95;;;;;;;14.73;46.58;93054.59;4977483;28;20039;-91
2023/01/10 06:02:47;;;;;;;102.43;23.42;;;;;;;14.69;45.28;93056.84;4977949;28;20079;-92
2023/01/10 06:05:13;;;;;;;44.63;16.25;;;;;;;14.62;45.44;93062.78;4971161;28;20039;-92
2023/01/10 06:07:38;;;;;;;36.92;14.65;;;;;;;14.74;45.48;93064.25;4974120;28;20118;-91
2023/01/10 06:10:04;;;;;;;70.90;30.45;;;;;;;14.70;45.64;93071.94;4986047;28;20042;-91
2023/01/10 06:12:35;;;;;;;66.55;31.92;;;;;;;14.75;46.40;93070.44;4953420;28;20057;-87
2023/01/10 06:15:02;;;;;;;87.75;36.83;;;;;;;14.79;46.94;93081.81;4956689;28;20050;-92
2023/01/10 06:17:28;;;;;;;81.70;36.03;;;;;;;14.75;47.83;93092.19;4942619;28;20061;-91
2023/01/10 06:19:53;;;;;;;79.57;35.75;;;;;;;14.79;47.69;93097.41;4964908;28;20047;-90
2023/01/10 06:22:19;;;;;;;73.35;31.30;;;;;;;14.86;47.42;93094.19;4953599;28;20038;-92
2023/01/10 06:24:44;;;;;;;75.45;35.08;;;;;;;14.90;47.82;93089.25;4981753;28;20050;-91
2023/01/10 06:27:10;;;;;;;129.98;57.78;;;;;;;14.88;48.00;93097.16;4936335;28;20045;-91
2023/01/10 06:29:35;;;;;;;112.95;46.97;;;;;;;14.85;47.59;93107.06;4984958;28;20039;-89
2023/01/10 06:32:00;;;;;;;120.88;51.05;;;;;;;14.87;47.83;93110.03;4949635;28;20503;-93
2023/01/10 06:34:26;;;;;;;165.63;79.68;;;;;;;14.89;47.71;93106.81;4963398;28;20513;-89
2023/01/10 06:36:51;;;;;;;180.48;88.95;;;;;;;14.87;47.84;93110.03;4958150;28;20378;-90
2023/01/10 06:39:17;;;;;;;195.63;97.05;;;;;;;14.87;47.87;93120.91;4975988;28;20039;-91
2023/01/10 06:41:42;;;;;;;197.85;89.85;;;;;;;14.92;47.81;93127.59;4981093;28;20164;-91
2023/01/10 06:44:08;;;;;;;165.27;78.10;;;;;;;14.92;47.91;93133.03;4986598;28;20039;-93
2023/01/10 06:46:33;;;;;;;256.02;128.50;;;;;;;14.91;47.66;93131.56;4956621;28;20113;-94
2023/01/10 06:48:59;;;;;;;243.52;119.35;;;;;;;14.95;48.09;93134.75;5001137;28;20090;-93
2023/01/10 06:52:08;;;;;;;222.52;110.85;;;;;;;15.02;47.74;93136.97;5015559;28;20043;-96
2023/01/10 06:54:37;;;;;;;244.00;121.93;;;;;;;14.99;47.71;93144.16;4918530;29;20050;-95
2023/01/10 06:57:02;;;;;;;253.13;124.30;;;;;;;14.99;47.89;93144.16;4912213;29;20040;-88
2023/01/10 06:59:27;;;;;;;256.13;126.10;;;;;;;14.99;47.98;93157.03;4906192;29;20758;-89
2023/01/10 07:01:53;;;;;;;255.50;122.63;;;;;;;15.02;47.80;93159.50;4917384;29;20550;-88
2023/01/10 07:04:18;;;;;;;230.82;115.38;;;;;;;15.06;47.74;93161.97;4930355;29;20044;-89
2023/01/10 07:06:44;;;;;;;248.80;116.55;;;;;;;15.11;47.82;93169.41;4891943;29;20404;-91
2023/01/10 07:09:09;;;;;;;223.13;108.60;;;;;;;15.23;47.89;93173.59;4894864;29;20078;-91
2023/01/10 07:11:36;;;;;;;202.75;104.50;;;;;;;15.24;48.05;93172.38;4913622;29;20058;-93
2023/01/10 07:14:05;;;;;;;216.77;100.68;;;;;;;15.33;47.53;93176.84;4899014;29;20044;-93
2023/01/10 07:16:36;;;;;;;195.82;101.97;;;;;;;15.31;47.51;93168.41;4915624;29;20087;-94
2023/01/10 07:19:01;;;;;;;184.23;97.05;;;;;;;15.37;47.76;93182.78;4915624;29;20044;-92
2023/01/10 07:21:27;;;;;;;188.18;91.95;;;;;;;15.38;47.30;93192.41;4915087;29;20040;-91
2023/01/10 07:23:53;;;;;;;162.73;88.88;;;;;;;15.25;47.48;93192.91;4895495;29;20048;-89
2023/01/10 07:26:19;;;;;;;171.75;88.10;;;;;;;15.23;47.66;93200.84;4926966;29;20179;-91
2023/01/10 07:28:50;;;;;;;166.45;84.18;;;;;;;15.19;47.70;93213.94;4917574;28;20051;-91
2023/01/10 07:31:17;;;;;;;180.90;84.90;;;;;;;15.18;47.57;93212.47;4963395;28;20038;-90
2023/01/10 07:33:43;;;;;;;161.95;81.57;;;;;;;15.21;47.63;93208.75;4954112;28;20038;-92
2023/01/10 07:36:08;;;;;;;157.98;79.00;;;;;;;15.16;47.61;93214.94;4960898;28;20038;-87
2023/01/10 07:38:34;;;;;;;162.50;76.55;;;;;;;15.18;47.73;93212.47;4947145;28;20600;-88
2023/01/10 07:41:03;;;;;;;159.70;76.93;;;;;;;15.11;47.78;93226.59;4976689;28;20070;-87
2023/01/10 07:43:28;;;;;;;139.55;74.40;;;;;;;15.08;48.22;93225.59;4953479;28;20046;-87
2023/01/10 07:45:57;;;;;;;146.10;75.88;;;;;;;15.13;47.77;93237.72;5003848;28;20523;-87
2023/01/10 07:48:22;;;;;;;151.73;76.05;;;;;;;15.11;47.99;93244.91;4969950;28;20128;-87
2023/01/10 07:50:48;;;;;;;140.60;74.78;;;;;;;15.11;48.03;93253.81;4976506;28;20494;-89
2023/01/10 07:53:13;;;;;;;176.18;78.40;;;;;;;15.11;47.97;93261.22;4955971;28;20818;-86
2023/01/10 07:55:40;;;;;;;169.13;77.65;;;;;;;15.10;47.90;93257.78;4961470;28;20054;-87
2023/01/10 07:58:09;;;;;;;179.65;84.07;;;;;;;15.12;47.99;93265.44;4984184;28;20102;-87
2023/01/10 08:00:36;;;;;;;179.43;90.55;;;;;;;15.07;47.98;93258.75;5000510;28;20780;-88
2023/01/10 08:03:01;;;;;;;189.40;93.68;;;;;;;15.11;48.06;93261.22;4971909;28;20043;-90
2023/01/10 08:05:29;;;;;;;187.13;90.68;;;;;;;15.09;48.00;93259.75;4957846;28;20086;-91
2023/01/10 08:07:58;;;;;;;220.73;97.30;;;;;;;15.17;47.93;93270.13;4980996;28;20055;-87
2023/01/10 08:10:25;;;;;;;201.85;93.78;;;;;;;15.18;48.05;93269.66;4986725;28;20552;-91
2023/01/10 08:12:50;;;;;;;243.85;123.00;;;;;;;15.18;47.84;93277.06;4986934;28;20062;-90
2023/01/10 08:15:16;;;;;;;186.55;95.45;;;;;;;15.20;47.82;93288.22;4955375;28;20043;-89
2023/01/10 08:17:43;;;;;;;204.88;99.93;;;;;;;15.16;48.01;93291.16;4956038;28;20049;-87
2023/01/10 08:20:09;;;;;;;186.10;98.40;;;;;;;15.16;48.09;93293.91;4971126;28;20049;-87
2023/01/10 08:22:35;;;;;;;204.25;104.55;;;;;;;15.17;48.05;93297.34;4967038;28;20406;-89
2023/01/10 08:25:00;;;;;;;187.60;88.18;;;;;;;15.04;46.26;93306.00;4953315;28;20123;-87
2023/01/10 08:27:26;;;;;;;167.85;83.60;;;;;;;14.97;46.26;93320.09;4939241;28;20051;-86
2023/01/10 08:29:51;;;;;;;202.43;89.80;;;;;;;15.01;46.71;93320.59;4972615;28;20647;-86
2023/01/10 08:32:17;;;;;;;193.63;96.10;;;;;;;15.08;47.07;93323.59;5003088;28;20070;-87
2023/01/10 08:34:43;;;;;;;185.93;93.68;;;;;;;15.05;46.88;93335.47;4972860;28;20057;-88
2023/01/10 08:37:11;;;;;;;214.27;101.43;;;;;;;15.09;47.46;93324.34;4982652;28;20058;-87
2023/01/10 08:39:38;;;;;;;241.25;106.40;;;;;;;15.04;47.86;93333.22;4962608;28;20356;-89
2023/01/10 08:42:03;;;;;;;215.65;103.03;;;;;;;15.08;47.90;93341.91;4985833;28;20038;-90
2023/01/10 08:44:29;;;;;;;222.38;105.93;;;;;;;15.07;47.73;93343.13;4954933;28;20043;-87
2023/01/10 08:46:55;;;;;;;205.00;99.78;;;;;;;15.09;47.77;93344.16;4985344;28;20047;-88
2023/01/10 08:49:21;;;;;;;182.38;90.97;;;;;;;15.11;47.84;93354.53;4953546;28;20061;-89
2023/01/10 08:51:47;;;;;;;189.13;94.70;;;;;;;15.15;48.00;93344.16;4969182;28;20043;-87
2023/01/10 08:54:13;;;;;;;180.07;88.40;;;;;;;15.16;48.08;93355.78;4934205;28;20117;-88
2023/01/10 08:56:39;;;;;;;179.88;89.00;;;;;;;15.12;47.88;93366.94;4979830;28;20035;-88
2023/01/10 08:59:05;;;;;;;159.80;85.05;;;;;;;15.14;47.84;93364.47;4968962;28;20047;-88
2023/01/10 09:01:30;;;;;;;163.13;81.22;;;;;;;15.14;47.86;93371.88;5000204;28;20051;-89
2023/01/10 09:03:56;;;;;;;158.55;85.13;;;;;;;15.17;47.95;93379.03;4970036;28;20393;-88
2023/01/10 09:06:22;;;;;;;155.23;79.93;;;;;;;15.19;47.64;93387.47;4936264;28;20088;-88
2023/01/10 09:08:48;;;;;;;170.85;79.97;;;;;;;15.19;47.96;93382.03;4954169;28;20050;-87
2023/01/10 09:11:13;;;;;;;170.85;74.97;;;;;;;15.19;47.62;93390.19;4969146;28;20047;-88
2023/01/10 09:13:39;;;;;;;143.85;69.88;;;;;;;15.18;47.58;93388.69;4969453;28;20047;-87
2023/01/10 09:16:05;;;;;;;142.13;66.57;;;;;;;15.17;47.96;93395.38;4985563;28;20049;-87
2023/01/10 09:18:30;;;;;;;147.13;71.28;;;;;;;15.22;47.67;93400.09;4986457;28;20050;-87
2023/01/10 09:20:56;;;;;;;147.25;70.55;;;;;;;15.19;48.05;93396.38;4956835;28;20074;-87
2023/01/10 09:23:22;;;;;;;142.60;71.07;;;;;;;15.25;47.52;93397.16;4971370;28;20031;-92
2023/01/10 09:25:51;;;;;;;128.77;66.50;;;;;;;15.22;47.87;93395.41;4989763;28;20039;-92
2023/01/10 09:28:16;;;;;;;145.10;73.55;;;;;;;15.19;47.85;93410.00;4992896;28;20038;-89
2023/01/10 09:30:50;;;;;;;146.13;76.20;;;;;;;15.21;47.84;93418.44;5044501;28;20862;-89
2023/01/10 09:33:16;;;;;;;154.88;83.07;;;;;;;15.21;48.03;93415.69;5023907;28;20025;-89
2023/01/10 09:35:42;;;;;;;165.68;86.00;;;;;;;15.19;48.08;93401.84;5025495;28;20404;-89
2023/01/10 09:38:10;;;;;;;185.45;95.47;;;;;;;15.17;47.89;93417.16;5000107;28;20111;-90
2023/01/10 09:40:47;;;;;;;172.10;93.60;;;;;;;15.16;47.96;93421.13;5023586;28;20042;-88
2023/01/10 09:43:40;;;;;;;171.57;91.53;;;;;;;15.23;47.98;93431.56;5028909;28;20041;-88
2023/01/10 09:46:21;;;;;;;177.95;93.32;;;;;;;15.20;47.78;93444.16;5046929;28;20037;-90
2023/01/10 09:48:55;;;;;;;166.55;91.95;;;;;;;15.17;48.36;93447.88;5043354;28;20092;-88
2023/01/10 09:51:38;;;;;;;149.55;87.03;;;;;;;15.17;48.08;93452.56;5038149;28;20640;-86
2023/01/10 09:54:24;;;;;;;163.55;85.40;;;;;;;15.18;48.25;93449.34;5055175;28;20042;-88
2023/01/10 09:56:49;;;;;;;137.15;78.68;;;;;;;15.19;48.04;93450.84;5039895;28;20050;-88
2023/01/10 09:59:20;;;;;;;160.10;86.72;;;;;;;15.21;48.11;93444.91;5015179;28;20053;-88
2023/01/10 10:01:47;;;;;;;163.57;82.07;;;;;;;15.23;47.84;93445.16;5022393;28;20130;-87
2023/01/10 10:04:27;;;;;;;150.35;76.95;;;;;;;15.23;48.28;93442.44;5025897;28;20046;-88
2023/01/10 10:06:53;;;;;;;179.25;81.05;;;;;;;15.25;48.24;93443.44;5029057;28;20539;-87
2023/01/10 10:09:23;;;;;;;161.02;80.30;;;;;;;15.25;47.99;93443.44;5039446;28;20120;-90
2023/01/10 10:11:59;;;;;;;203.13;80.63;;;;;;;15.24;48.30;93446.66;5024272;28;20069;-90
2023/01/10 10:14:46;;;;;;;169.15;77.72;;;;;;;15.24;48.37;93452.84;5037603;28;20072;-93
2023/01/10 10:17:32;;;;;;;164.02;74.57;;;;;;;15.24;48.22;93455.56;5037850;28;20038;-91
2023/01/10 10:20:15;;;;;;;151.55;73.53;;;;;;;15.27;48.09;93460.06;5013868;28;20065;-88
2023/01/10 10:22:47;;;;;;;152.90;75.45;;;;;;;15.26;48.08;93458.56;5018911;28;20540;-88
2023/01/10 10:25:56;;;;;;;140.23;72.30;;;;;;;15.23;48.10;93456.81;5016397;28;20048;-86
2023/01/10 10:28:30;;;;;;;151.70;77.63;;;;;;;15.23;48.09;93456.06;5026273;28;20075;-92
2023/01/10 10:31:28;;;;;;;159.35;80.65;;;;;;;15.29;48.35;93448.66;5047158;28;20037;-87
2023/01/10 10:34:21;;;;;;;143.43;72.15;;;;;;;15.27;48.29;93451.88;4998632;28;20083;-88
2023/01/10 10:36:48;;;;;;;152.10;72.13;;;;;;;15.25;48.41;93459.78;5010226;28;20041;-89
2023/01/10 10:39:23;;;;;;;150.23;70.18;;;;;;;15.27;48.10;93459.31;5050293;28;20050;-88
2023/01/10 10:41:51;;;;;;;132.52;65.50;;;;;;;15.29;48.37;93454.13;5006687;28;20136;-87
2023/01/10 10:44:26;;;;;;;152.32;70.15;;;;;;;15.27;48.22;93465.50;4994223;28;20122;-88
2023/01/10 10:46:52;;;;;;;179.73;74.10;;;;;;;15.28;48.07;93468.97;5027803;28;20077;-88
2023/01/10 10:49:28;;;;;;;139.10;64.85;;;;;;;15.29;48.39;93478.63;5024302;28;20070;-89
2023/01/10 10:51:53;;;;;;;142.70;64.32;;;;;;;15.28;48.59;93485.31;5007835;28;20133;-87
2023/01/10 10:54:19;;;;;;;145.77;68.53;;;;;;;15.32;48.37;93488.53;4999041;28;20049;-87
2023/01/10 10:56:44;;;;;;;148.35;73.68;;;;;;;15.28;48.26;93477.13;4979881;28;20050;-88
2023/01/10 10:59:11;;;;;;;162.98;81.75;;;;;;;15.24;48.59;93474.63;5010379;28;20061;-90
2023/01/10 11:01:37;;;;;;;143.63;69.30;;;;;;;15.31;48.41;93481.59;5012378;28;20036;-88
2023/01/10 11:04:07;;;;;;;137.52;68.95;;;;;;;15.26;48.57;93474.91;5022042;28;20041;-87
2023/01/10 11:06:33;;;;;;;136.38;72.65;;;;;;;15.30;48.44;93480.88;4982314;28;20041;-88
2023/01/10 11:09:00;;;;;;;118.40;64.72;;;;;;;15.31;48.29;93485.06;5008067;28;20037;-88
2023/01/10 11:11:29;;;;;;;123.20;67.10;;;;;;;15.33;48.29;93484.59;4980882;28;20121;-88
2023/01/10 11:14:04;;;;;;;134.85;70.28;;;;;;;15.25;48.51;93481.56;5007359;28;20039;-88
2023/01/10 11:16:37;;;;;;;118.88;65.97;;;;;;;15.21;48.65;93483.78;5007668;28;20518;-88
2023/01/10 11:19:15;;;;;;;123.15;65.45;;;;;;;15.25;48.58;93487.03;4988210;28;20102;-87
2023/01/10 11:21:40;;;;;;;114.43;63.45;;;;;;;15.23;48.65;93492.22;4989477;28;20046;-85
2023/01/10 11:24:22;;;;;;;127.90;67.85;;;;;;;15.30;48.47;93491.75;4979367;28;20031;-87
2023/01/10 11:26:47;;;;;;;109.25;57.15;;;;;;;15.33;48.37;93493.50;4997468;28;20041;-87
2023/01/10 11:29:25;;;;;;;157.73;65.97;;;;;;;15.30;48.28;93491.75;4974513;28;20075;-86
2023/01/10 11:31:50;;;;;;;123.78;60.03;;;;;;;15.32;48.49;93494.75;5008754;28;20069;-86
2023/01/10 11:34:32;;;;;;;108.65;55.58;;;;;;;15.32;48.26;93486.56;5010554;28;20037;-86
2023/01/10 11:36:59;;;;;;;89.25;52.70;;;;;;;15.33;48.43;93498.97;5020996;28;20044;-85